Time,TemperatureF,DewpointF,PressureIn,WindDirection,WindDirectionDegrees,WindSpeedMPH,WindSpeedGustMPH,Humidity,HourlyPrecipIn,Conditions,Clouds,dailyrainin,SoftwareType,DateUTC
2013-09-07 00:04:00,81.1,44.0,29.74,SSE,148,0.0,1.0,27,0.00,,---,0.00,VWS V14.01,2013-09-07 07:04:00,
2013-09-07 00:09:00,80.6,43.6,29.75,ESE,108,0.0,2.0,27,0.00,,---,0.00,VWS V14.01,2013-09-07 07:09:00,
2013-09-07 00:14:00,80.0,43.0,29.75,East,87,0.0,2.0,27,0.00,,---,0.00,VWS V14.01,2013-09-07 07:14:00,
2013-09-07 00:19:00,79.9,43.0,29.75,NE,49,0.0,0.0,27,0.00,,---,0.00,VWS V14.01,2013-09-07 07:19:00,
2013-09-07 00:24:00,80.0,43.0,29.74,ESE,103,0.0,0.0,27,0.00,,---,0.00,VWS V14.01,2013-09-07 07:24:00,
2013-09-07 00:29:00,79.7,42.8,29.75,SW,231,0.0,0.0,27,0.00,,---,0.00,VWS V14.01,2013-09-07 07:29:00,
2013-09-07 00:34:00,79.9,43.9,29.74,SE,130,0.0,0.0,28,0.00,,---,0.00,VWS V14.01,2013-09-07 07:34:00,
2013-09-07 00:39:00,79.4,43.5,29.75,ESE,112,0.0,0.0,28,0.00,,---,0.00,VWS V14.01,2013-09-07 07:39:00,
2013-09-07 00:44:00,79.4,44.4,29.75,ESE,118,0.0,0.0,29,0.00,,---,0.00,VWS V14.01,2013-09-07 07:44:00,
2013-09-07 00:49:00,79.6,43.7,29.75,East,79,0.0,0.0,28,0.00,,---,0.00,VWS V14.01,2013-09-07 07:49:00,
2013-09-07 00:54:00,79.2,44.2,29.75,ESE,103,0.0,0.0,29,0.00,,---,0.00,VWS V14.01,2013-09-07 07:54:00,
2013-09-07 00:59:00,78.8,43.9,29.75,ENE,66,0.0,0.0,29,0.00,,---,0.00,VWS V14.01,2013-09-07 07:59:00,
2013-09-07 01:04:00,78.9,43.1,29.75,ENE,65,0.0,0.0,28,0.00,,---,0.00,VWS V14.01,2013-09-07 08:04:00,
2013-09-07 01:09:00,78.7,43.8,29.75,NE,53,0.0,0.0,29,0.00,,---,0.00,VWS V14.01,2013-09-07 08:09:00,
2013-09-07 01:14:00,79.0,43.2,29.75,ENE,77,0.0,0.0,28,0.00,,---,0.00,VWS V14.01,2013-09-07 08:14:00,
2013-09-07 01:19:00,79.4,43.5,29.74,East,95,0.0,0.0,28,0.00,,---,0.00,VWS V14.01,2013-09-07 08:19:00,
2013-09-07 01:24:00,78.8,43.0,29.74,ENE,78,0.0,0.0,28,0.00,,---,0.00,VWS V14.01,2013-09-07 08:24:00,
2013-09-07 01:29:00,78.3,44.3,29.74,ESE,116,0.0,0.0,30,0.00,,---,0.00,VWS V14.01,2013-09-07 08:29:00,
2013-09-07 01:34:00,77.6,43.7,29.75,ESE,103,0.0,0.0,30,0.00,,---,0.00,VWS V14.01,2013-09-07 08:34:00,
2013-09-07 01:39:00,77.0,44.1,29.75,SE,127,0.0,0.0,31,0.00,,---,0.00,VWS V14.01,2013-09-07 08:39:00,
2013-09-07 01:44:00,78.2,43.4,29.75,SE,131,0.0,0.0,29,0.00,,---,0.00,VWS V14.01,2013-09-07 08:44:00,
2013-09-07 01:49:00,78.8,43.0,29.75,SE,131,0.0,1.0,28,0.00,,---,0.00,VWS V14.01,2013-09-07 08:49:00,
2013-09-07 01:54:00,79.4,42.5,29.75,SSE,148,0.0,1.0,27,0.00,,---,0.00,VWS V14.01,2013-09-07 08:54:00,
2013-09-07 01:59:00,79.5,43.6,29.75,North,352,0.0,2.0,28,0.00,,---,0.00,VWS V14.01,2013-09-07 08:59:00,
2013-09-07 02:04:00,77.7,43.8,29.74,NNE,28,0.0,2.0,30,0.00,,---,0.00,VWS V14.01,2013-09-07 09:04:00,
2013-09-07 02:09:00,76.5,43.7,29.74,NE,39,0.0,2.0,31,0.00,,---,0.00,VWS V14.01,2013-09-07 09:09:00,
2013-09-07 02:14:00,75.6,43.7,29.74,NNE,30,0.0,0.0,32,0.00,,---,0.00,VWS V14.01,2013-09-07 09:14:00,
2013-09-07 02:19:00,74.9,43.9,29.74,NNE,30,0.0,0.0,33,0.00,,---,0.00,VWS V14.01,2013-09-07 09:19:00,
2013-09-07 02:24:00,74.4,44.2,29.74,NNE,33,0.0,0.0,34,0.00,,---,0.00,VWS V14.01,2013-09-07 09:24:00,
2013-09-07 02:29:00,73.8,43.7,29.74,NNE,25,0.0,0.0,34,0.00,,---,0.00,VWS V14.01,2013-09-07 09:29:00,
2013-09-07 02:34:00,73.4,44.1,29.74,NNE,25,0.0,0.0,35,0.00,,---,0.00,VWS V14.01,2013-09-07 09:34:00,
2013-09-07 02:39:00,73.0,43.8,29.74,NNE,25,0.0,0.0,35,0.00,,---,0.00,VWS V14.01,2013-09-07 09:39:00,
2013-09-07 02:44:00,72.7,44.2,29.74,NNE,25,0.0,0.0,36,0.00,,---,0.00,VWS V14.01,2013-09-07 09:44:00,
2013-09-07 02:49:00,72.6,44.9,29.74,SSW,208,0.0,0.0,37,0.00,,---,0.00,VWS V14.01,2013-09-07 09:49:00,
2013-09-07 02:54:00,72.4,44.0,29.74,SW,217,0.0,0.0,36,0.00,,---,0.00,VWS V14.01,2013-09-07 09:54:00,
2013-09-07 02:59:00,72.3,45.3,29.74,South,190,0.0,0.0,38,0.00,,---,0.00,VWS V14.01,2013-09-07 09:59:00,
2013-09-07 03:04:00,72.3,44.6,29.74,SSE,168,0.0,0.0,37,0.00,,---,0.00,VWS V14.01,2013-09-07 10:04:00,
2013-09-07 03:09:00,72.4,44.7,29.74,South,170,1.0,1.0,37,0.00,,---,0.00,VWS V14.01,2013-09-07 10:09:00,
2013-09-07 03:14:00,72.3,44.6,29.74,South,181,4.0,4.0,37,0.00,,---,0.00,VWS V14.01,2013-09-07 10:14:00,
2013-09-07 03:19:00,72.4,44.7,29.73,South,184,2.0,4.0,37,0.00,,---,0.00,VWS V14.01,2013-09-07 10:19:00,
2013-09-07 03:24:00,72.4,44.7,29.73,SSE,162,1.0,4.0,37,0.00,,---,0.00,VWS V14.01,2013-09-07 10:24:00,
2013-09-07 03:29:00,72.6,44.9,29.74,SSE,166,3.0,4.0,37,0.00,,---,0.00,VWS V14.01,2013-09-07 10:29:00,
2013-09-07 03:34:00,73.2,44.7,29.73,SSE,162,4.0,4.0,36,0.00,,---,0.00,VWS V14.01,2013-09-07 10:34:00,
2013-09-07 03:39:00,74.0,43.9,29.73,SSE,156,5.0,5.0,34,0.00,,---,0.00,VWS V14.01,2013-09-07 10:39:00,
2013-09-07 03:44:00,74.5,44.3,29.73,SSE,158,4.0,5.0,34,0.00,,---,0.00,VWS V14.01,2013-09-07 10:44:00,
2013-09-07 03:49:00,74.8,43.8,29.73,SSE,157,3.0,5.0,33,0.00,,---,0.00,VWS V14.01,2013-09-07 10:49:00,
2013-09-07 03:54:00,75.0,44.0,29.73,SSE,148,2.0,5.0,33,0.00,,---,0.00,VWS V14.01,2013-09-07 10:54:00,
2013-09-07 03:59:00,74.8,44.6,29.73,SSE,157,2.0,4.0,34,0.00,,---,0.00,VWS V14.01,2013-09-07 10:59:00,
2013-09-07 04:04:00,74.8,43.8,29.73,SSW,198,2.0,5.0,33,0.00,,---,0.00,VWS V14.01,2013-09-07 11:04:00,
2013-09-07 04:09:00,75.6,43.7,29.73,SSE,167,4.0,6.0,32,0.00,,---,0.00,VWS V14.01,2013-09-07 11:09:00,
2013-09-07 04:14:00,76.3,42.6,29.73,SSE,160,4.0,5.0,30,0.00,,---,0.00,VWS V14.01,2013-09-07 11:14:00,
2013-09-07 04:19:00,76.8,42.2,29.73,SE,145,2.0,5.0,29,0.00,,---,0.00,VWS V14.01,2013-09-07 11:19:00,
2013-09-07 04:24:00,76.2,44.2,29.73,North,1,4.0,7.0,32,0.00,,---,0.00,VWS V14.01,2013-09-07 11:24:00,
2013-09-07 04:30:00,74.8,43.8,29.73,South,190,1.0,3.0,33,0.00,,---,0.00,VWS V14.01,2013-09-07 11:30:00,
2013-09-07 04:35:00,74.7,44.5,29.73,North,1,0.0,3.0,34,0.00,,---,0.00,VWS V14.01,2013-09-07 11:35:00,
2013-09-07 04:40:00,73.6,45.0,29.73,NNW,345,2.0,3.0,36,0.00,,---,0.00,VWS V14.01,2013-09-07 11:40:00,
2013-09-07 04:45:00,72.3,45.3,29.73,North,5,0.0,0.0,38,0.00,,---,0.00,VWS V14.01,2013-09-07 11:45:00,
2013-09-07 04:50:00,71.5,45.3,29.73,NNE,27,0.0,0.0,39,0.00,,---,0.00,VWS V14.01,2013-09-07 11:50:00,
2013-09-07 04:55:00,71.1,45.6,29.73,SSW,210,3.0,3.0,40,0.00,,---,0.00,VWS V14.01,2013-09-07 11:55:00,
2013-09-07 05:00:00,70.3,45.5,29.74,WNW,284,2.0,5.0,41,0.00,,---,0.00,VWS V14.01,2013-09-07 12:00:00,
2013-09-07 05:05:00,69.8,45.7,29.73,West,280,1.0,5.0,42,0.00,,---,0.00,VWS V14.01,2013-09-07 12:05:00,
2013-09-07 05:10:00,69.6,45.5,29.74,NW,318,2.0,5.0,42,0.00,,---,0.00,VWS V14.01,2013-09-07 12:10:00,
2013-09-07 05:15:00,69.4,45.3,29.74,West,278,1.0,1.0,42,0.00,,---,0.00,VWS V14.01,2013-09-07 12:15:00,
2013-09-07 05:20:00,69.1,45.1,29.74,SW,233,0.0,1.0,42,0.00,,---,0.00,VWS V14.01,2013-09-07 12:20:00,
2013-09-07 05:25:00,69.0,45.6,29.75,SW,233,0.0,1.0,43,0.00,,---,0.00,VWS V14.01,2013-09-07 12:25:00,
2013-09-07 05:30:00,69.1,45.1,29.74,SW,233,0.0,0.0,42,0.00,,---,0.00,VWS V14.01,2013-09-07 12:30:00,
2013-09-07 05:35:00,69.6,45.5,29.75,West,271,1.0,2.0,42,0.00,,---,0.00,VWS V14.01,2013-09-07 12:35:00,
2013-09-07 05:40:00,69.1,45.1,29.75,South,187,0.0,2.0,42,0.00,,---,0.00,VWS V14.01,2013-09-07 12:40:00,
2013-09-07 05:45:00,68.8,44.8,29.74,SW,227,0.0,2.0,42,0.00,,---,0.00,VWS V14.01,2013-09-07 12:45:00,
2013-09-07 05:50:00,68.6,45.8,29.74,SSW,208,1.0,3.0,44,0.00,,---,0.00,VWS V14.01,2013-09-07 12:50:00,
2013-09-07 05:55:00,68.3,45.6,29.74,SSW,211,3.0,3.0,44,0.00,,---,0.00,VWS V14.01,2013-09-07 12:55:00,
2013-09-07 06:00:00,68.1,45.4,29.75,SSW,205,3.0,3.0,44,0.00,,---,0.00,VWS V14.01,2013-09-07 13:00:00,
2013-09-07 06:05:00,68.0,45.9,29.74,SW,217,3.0,4.0,45,0.00,,---,0.00,VWS V14.01,2013-09-07 13:05:00,
2013-09-07 06:10:00,68.1,45.4,29.74,WSW,256,1.0,4.0,44,0.00,,---,0.00,VWS V14.01,2013-09-07 13:10:00,
2013-09-07 06:15:00,68.2,46.1,29.75,West,266,1.0,1.0,45,0.00,,---,0.00,VWS V14.01,2013-09-07 13:15:00,
2013-09-07 06:20:00,68.0,45.9,29.75,West,266,0.0,1.0,45,0.00,,---,0.00,VWS V14.01,2013-09-07 13:20:00,
2013-09-07 06:25:00,67.7,45.6,29.75,NNE,30,0.0,1.0,45,0.00,,---,0.00,VWS V14.01,2013-09-07 13:25:00,
2013-09-07 06:30:00,67.6,45.5,29.75,NE,40,0.0,0.0,45,0.00,,---,0.00,VWS V14.01,2013-09-07 13:30:00,
2013-09-07 06:35:00,67.3,45.8,29.76,NE,42,0.0,3.0,46,0.00,,---,0.00,VWS V14.01,2013-09-07 13:35:00,
2013-09-07 06:40:00,66.9,45.5,29.76,NE,51,0.0,3.0,46,0.00,,---,0.00,VWS V14.01,2013-09-07 13:40:00,
2013-09-07 06:45:00,66.7,45.3,29.76,East,88,0.0,0.0,46,0.00,,---,0.00,VWS V14.01,2013-09-07 13:45:00,
2013-09-07 06:50:00,66.9,46.0,29.76,SSE,158,0.0,1.0,47,0.00,,---,0.00,VWS V14.01,2013-09-07 13:50:00,
2013-09-07 06:55:00,67.3,46.4,29.76,South,190,0.0,3.0,47,0.00,,---,0.00,VWS V14.01,2013-09-07 13:55:00,
2013-09-07 07:00:00,67.9,46.4,29.77,SE,145,3.0,3.0,46,0.00,,---,0.00,VWS V14.01,2013-09-07 14:00:00,
2013-09-07 07:05:00,68.9,46.7,29.77,SE,139,1.0,3.0,45,0.00,,---,0.00,VWS V14.01,2013-09-07 14:05:00,
2013-09-07 07:10:00,70.1,46.6,29.77,SE,132,0.0,3.0,43,0.00,,---,0.00,VWS V14.01,2013-09-07 14:10:00,
2013-09-07 07:15:00,71.1,46.9,29.77,SE,139,1.0,1.0,42,0.00,,---,0.00,VWS V14.01,2013-09-07 14:15:00,
2013-09-07 07:20:00,71.7,47.4,29.77,SSW,208,0.0,2.0,42,0.00,,---,0.00,VWS V14.01,2013-09-07 14:20:00,
2013-09-07 07:25:00,72.2,46.6,29.77,South,179,0.0,2.0,40,0.00,,---,0.00,VWS V14.01,2013-09-07 14:25:00,
2013-09-07 07:30:00,72.6,47.6,29.77,South,190,0.0,0.0,41,0.00,,---,0.00,VWS V14.01,2013-09-07 14:30:00,
2013-09-07 07:35:00,73.1,48.0,29.77,SSW,207,0.0,0.0,41,0.00,,---,0.00,VWS V14.01,2013-09-07 14:35:00,
2013-09-07 07:40:00,73.1,48.0,29.77,SSW,212,0.0,0.0,41,0.00,,---,0.00,VWS V14.01,2013-09-07 14:40:00,
2013-09-07 07:45:00,73.6,48.5,29.77,SSW,212,0.0,0.0,41,0.00,,---,0.00,VWS V14.01,2013-09-07 14:45:00,
2013-09-07 07:50:00,75.4,49.4,29.77,North,360,0.0,0.0,40,0.00,,---,0.00,VWS V14.01,2013-09-07 14:50:00,
2013-09-07 07:55:00,75.1,48.5,29.77,NW,316,0.0,0.0,39,0.00,,---,0.00,VWS V14.01,2013-09-07 14:55:00,
2013-09-07 08:00:00,74.8,48.2,29.77,WNW,303,0.0,0.0,39,0.00,,---,0.00,VWS V14.01,2013-09-07 15:00:00,
2013-09-07 08:05:00,74.9,48.3,29.77,WNW,303,0.0,0.0,39,0.00,,---,0.00,VWS V14.01,2013-09-07 15:05:00,
2013-09-07 08:10:00,75.8,49.8,29.77,SSW,205,0.0,0.0,40,0.00,,---,0.00,VWS V14.01,2013-09-07 15:10:00,
2013-09-07 08:15:00,76.8,50.0,29.77,SSW,205,0.0,0.0,39,0.00,,---,0.00,VWS V14.01,2013-09-07 15:15:00,
2013-09-07 08:20:00,78.8,51.1,29.77,SSW,205,0.0,0.0,38,0.00,,---,0.00,VWS V14.01,2013-09-07 15:20:00,
2013-09-07 08:25:00,78.8,48.9,29.77,NE,55,0.0,3.0,35,0.00,,---,0.00,VWS V14.01,2013-09-07 15:25:00,
2013-09-07 08:30:00,78.7,48.8,29.77,NE,37,3.0,3.0,35,0.00,,---,0.00,VWS V14.01,2013-09-07 15:30:00,
2013-09-07 08:35:00,78.0,48.9,29.77,NE,49,4.0,5.0,36,0.00,,---,0.00,VWS V14.01,2013-09-07 15:35:00,
2013-09-07 08:40:00,77.6,49.3,29.77,ESE,104,1.0,5.0,37,0.00,,---,0.00,VWS V14.01,2013-09-07 15:40:00,
2013-09-07 08:45:00,78.6,49.4,29.77,ESE,108,0.0,2.0,36,0.00,,---,0.00,VWS V14.01,2013-09-07 15:45:00,
2013-09-07 08:50:00,79.7,48.9,29.77,ESE,110,2.0,2.0,34,0.00,,---,0.00,VWS V14.01,2013-09-07 15:50:00,
2013-09-07 08:55:00,80.3,46.1,29.77,East,98,0.0,2.0,30,0.00,,---,0.00,VWS V14.01,2013-09-07 15:55:00,
2013-09-07 09:00:00,80.8,45.6,29.77,NE,44,0.0,3.0,29,0.00,,---,0.00,VWS V14.01,2013-09-07 16:00:00,
2013-09-07 09:05:00,81.2,45.0,29.78,ESE,103,0.0,3.0,28,0.00,,---,0.00,VWS V14.01,2013-09-07 16:05:00,
2013-09-07 09:10:00,81.4,45.2,29.78,NE,41,1.0,3.0,28,0.00,,---,0.00,VWS V14.01,2013-09-07 16:10:00,
2013-09-07 09:15:00,81.7,44.5,29.78,NNE,27,2.0,2.0,27,0.00,,---,0.00,VWS V14.01,2013-09-07 16:15:00,
2013-09-07 09:20:00,82.2,44.9,29.78,ENE,66,0.0,4.0,27,0.00,,---,0.00,VWS V14.01,2013-09-07 16:20:00,
2013-09-07 09:25:00,82.8,44.5,29.78,ENE,68,3.0,4.0,26,0.00,,---,0.00,VWS V14.01,2013-09-07 16:25:00,
2013-09-07 09:30:00,83.2,43.8,29.78,ESE,107,2.0,4.0,25,0.00,,---,0.00,VWS V14.01,2013-09-07 16:30:00,
2013-09-07 09:35:00,83.8,44.3,29.78,NNE,23,2.0,4.0,25,0.00,,---,0.00,VWS V14.01,2013-09-07 16:35:00,
2013-09-07 09:40:00,84.0,45.5,29.78,NNE,33,3.0,4.0,26,0.00,,---,0.00,VWS V14.01,2013-09-07 16:40:00,
2013-09-07 09:45:00,84.3,45.7,29.78,East,79,1.0,1.0,26,0.00,,---,0.00,VWS V14.01,2013-09-07 16:45:00,
2013-09-07 09:50:00,84.6,44.9,29.78,NNE,19,1.0,3.0,25,0.00,,---,0.00,VWS V14.01,2013-09-07 16:50:00,
2013-09-07 09:55:00,84.5,44.9,29.78,NE,34,1.0,3.0,25,0.00,,---,0.00,VWS V14.01,2013-09-07 16:55:00,
2013-09-07 10:00:00,84.8,45.1,29.78,ENE,75,0.0,1.0,25,0.00,,---,0.00,VWS V14.01,2013-09-07 17:00:00,
2013-09-07 10:05:00,85.6,44.7,29.78,East,100,0.0,4.0,24,0.00,,---,0.00,VWS V14.01,2013-09-07 17:05:00,
2013-09-07 10:10:00,86.0,43.9,29.78,ENE,57,3.0,4.0,23,0.00,,---,0.00,VWS V14.01,2013-09-07 17:10:00,
2013-09-07 10:15:00,86.2,44.1,29.78,SE,124,1.0,1.0,23,0.00,,---,0.00,VWS V14.01,2013-09-07 17:15:00,
2013-09-07 10:20:00,86.9,44.7,29.78,East,82,0.0,2.0,23,0.00,,---,0.00,VWS V14.01,2013-09-07 17:20:00,
2013-09-07 10:25:00,87.4,43.9,29.78,ESE,104,0.0,3.0,22,0.00,,---,0.00,VWS V14.01,2013-09-07 17:25:00,
2013-09-07 10:30:00,87.6,44.1,29.77,NE,51,0.0,0.0,22,0.00,,---,0.00,VWS V14.01,2013-09-07 17:30:00,
2013-09-07 10:35:00,88.4,44.8,29.77,ESE,114,0.0,0.0,22,0.00,,---,0.00,VWS V14.01,2013-09-07 17:35:00,
2013-09-07 10:40:00,89.7,44.6,29.77,NE,37,0.0,1.0,21,0.00,,---,0.00,VWS V14.01,2013-09-07 17:40:00,
2013-09-07 10:45:00,89.7,44.6,29.77,NNW,329,0.0,0.0,21,0.00,,---,0.00,VWS V14.01,2013-09-07 17:45:00,
2013-09-07 10:50:00,90.0,44.9,29.77,NNE,18,0.0,0.0,21,0.00,,---,0.00,VWS V14.01,2013-09-07 17:50:00,
2013-09-07 10:55:00,90.6,45.4,29.77,NE,44,0.0,0.0,21,0.00,,---,0.00,VWS V14.01,2013-09-07 17:55:00,
2013-09-07 11:00:00,90.9,44.3,29.77,NE,46,0.0,0.0,20,0.00,,---,0.00,VWS V14.01,2013-09-07 18:00:00,
2013-09-07 11:05:00,91.0,43.1,29.77,NE,39,4.0,5.0,19,0.00,,---,0.00,VWS V14.01,2013-09-07 18:05:00,
2013-09-07 11:10:00,91.5,43.5,29.77,ENE,64,0.0,5.0,19,0.00,,---,0.00,VWS V14.01,2013-09-07 18:10:00,
2013-09-07 11:15:00,91.9,42.4,29.77,NW,304,0.0,0.0,18,0.00,,---,0.00,VWS V14.01,2013-09-07 18:15:00,
2013-09-07 11:21:00,91.7,42.2,29.76,NW,322,0.0,3.0,18,0.00,,---,0.00,VWS V14.01,2013-09-07 18:21:00,
2013-09-07 11:26:00,92.1,42.5,29.76,NW,317,0.0,3.0,18,0.00,,---,0.00,VWS V14.01,2013-09-07 18:26:00,
2013-09-07 11:31:00,92.8,43.1,29.76,NW,321,2.0,3.0,18,0.00,,---,0.00,VWS V14.01,2013-09-07 18:31:00,
2013-09-07 11:36:00,92.5,42.9,29.76,NE,49,2.0,9.0,18,0.00,,---,0.00,VWS V14.01,2013-09-07 18:36:00,
2013-09-07 11:41:00,92.8,43.1,29.76,ENE,72,2.0,9.0,18,0.00,,---,0.00,VWS V14.01,2013-09-07 18:41:00,
2013-09-07 11:46:00,93.4,43.6,29.76,West,273,0.0,1.0,18,0.00,,---,0.00,VWS V14.01,2013-09-07 18:46:00,
2013-09-07 11:51:00,93.8,42.4,29.76,SW,221,5.0,10.0,17,0.00,,---,0.00,VWS V14.01,2013-09-07 18:51:00,
2013-09-07 11:56:00,93.9,44.0,29.76,SSW,211,1.0,10.0,18,0.00,,---,0.00,VWS V14.01,2013-09-07 18:56:00,
2013-09-07 12:01:00,94.1,42.7,29.75,WSW,239,5.0,9.0,17,0.00,,---,0.00,VWS V14.01,2013-09-07 19:01:00,
2013-09-07 12:06:00,94.2,42.8,29.75,WNW,295,3.0,9.0,17,0.00,,---,0.00,VWS V14.01,2013-09-07 19:06:00,
2013-09-07 12:11:00,94.0,42.6,29.75,SSW,203,1.0,9.0,17,0.00,,---,0.00,VWS V14.01,2013-09-07 19:11:00,
2013-09-07 12:16:00,94.0,42.6,29.75,NW,309,3.0,7.0,17,0.00,,---,0.00,VWS V14.01,2013-09-07 19:16:00,
2013-09-07 12:21:00,94.2,42.8,29.74,West,274,2.0,8.0,17,0.00,,---,0.00,VWS V14.01,2013-09-07 19:21:00,
2013-09-07 12:26:00,94.6,41.5,29.74,NNE,13,0.0,8.0,16,0.00,,---,0.00,VWS V14.01,2013-09-07 19:26:00,
2013-09-07 12:31:00,94.4,42.9,29.74,NW,304,5.0,8.0,17,0.00,,---,0.00,VWS V14.01,2013-09-07 19:31:00,
2013-09-07 12:36:00,94.6,43.1,29.74,SSE,166,6.0,8.0,17,0.00,,---,0.00,VWS V14.01,2013-09-07 19:36:00,
2013-09-07 12:41:00,94.6,41.5,29.74,SW,233,3.0,9.0,16,0.00,,---,0.00,VWS V14.01,2013-09-07 19:41:00,
2013-09-07 12:46:00,95.3,40.4,29.74,SW,215,9.0,11.0,15,0.00,,---,0.00,VWS V14.01,2013-09-07 19:46:00,
2013-09-07 12:51:00,95.0,40.2,29.74,SW,231,1.0,11.0,15,0.00,,---,0.00,VWS V14.01,2013-09-07 19:51:00,
2013-09-07 12:56:00,95.3,43.6,29.73,WNW,300,7.0,11.0,17,0.00,,---,0.00,VWS V14.01,2013-09-07 19:56:00,
2013-09-07 13:01:00,94.7,43.2,29.73,NW,304,2.0,6.0,17,0.00,,---,0.00,VWS V14.01,2013-09-07 20:01:00,
2013-09-07 13:06:00,95.0,43.4,29.73,WNW,285,3.0,7.0,17,0.00,,---,0.00,VWS V14.01,2013-09-07 20:06:00,
2013-09-07 13:11:00,95.5,43.8,29.73,SW,219,8.0,8.0,17,0.00,,---,0.00,VWS V14.01,2013-09-07 20:11:00,
2013-09-07 13:16:00,95.8,42.5,29.72,SSW,204,3.0,10.0,16,0.00,,---,0.00,VWS V14.01,2013-09-07 20:16:00,
2013-09-07 13:21:00,95.7,44.0,29.72,South,184,0.0,10.0,17,0.00,,---,0.00,VWS V14.01,2013-09-07 20:21:00,
2013-09-07 13:26:00,95.8,44.0,29.72,East,96,0.0,10.0,17,0.00,,---,0.00,VWS V14.01,2013-09-07 20:26:00,
2013-09-07 13:31:00,96.1,42.7,29.72,SE,136,5.0,6.0,16,0.00,,---,0.00,VWS V14.01,2013-09-07 20:31:00,
2013-09-07 13:36:00,96.2,42.8,29.71,ENE,66,5.0,7.0,16,0.00,,---,0.00,VWS V14.01,2013-09-07 20:36:00,
2013-09-07 13:41:00,96.4,42.9,29.71,SSW,198,3.0,10.0,16,0.00,,---,0.00,VWS V14.01,2013-09-07 20:41:00,
2013-09-07 13:46:00,96.1,42.7,29.71,NNE,19,2.0,5.0,16,0.00,,---,0.00,VWS V14.01,2013-09-07 20:46:00,
2013-09-07 13:51:00,96.1,44.3,29.71,NNW,340,0.0,5.0,17,0.00,,---,0.00,VWS V14.01,2013-09-07 20:51:00,
2013-09-07 13:56:00,96.2,42.8,29.70,SW,229,1.0,7.0,16,0.00,,---,0.00,VWS V14.01,2013-09-07 20:56:00,
2013-09-07 14:01:00,96.5,43.0,29.70,SSW,203,5.0,8.0,16,0.00,,---,0.00,VWS V14.01,2013-09-07 21:01:00,
2013-09-07 14:06:00,96.4,42.9,29.70,SW,218,7.0,11.0,16,0.00,,---,0.00,VWS V14.01,2013-09-07 21:06:00,
2013-09-07 14:11:00,96.6,43.1,29.70,SW,233,7.0,11.0,16,0.00,,---,0.00,VWS V14.01,2013-09-07 21:11:00,
2013-09-07 14:16:00,96.8,43.3,29.69,SW,229,12.0,12.0,16,0.00,,---,0.00,VWS V14.01,2013-09-07 21:16:00,
2013-09-07 14:21:00,96.4,42.9,29.69,SE,139,5.0,12.0,16,0.00,,---,0.00,VWS V14.01,2013-09-07 21:21:00,
2013-09-07 14:26:00,96.6,43.1,29.69,West,260,3.0,12.0,16,0.00,,---,0.00,VWS V14.01,2013-09-07 21:26:00,
2013-09-07 14:31:00,96.6,43.1,29.69,WNW,295,6.0,11.0,16,0.00,,---,0.00,VWS V14.01,2013-09-07 21:31:00,
2013-09-07 14:36:00,96.1,42.7,29.69,SSW,210,0.0,11.0,16,0.00,,---,0.00,VWS V14.01,2013-09-07 21:36:00,
2013-09-07 14:41:00,96.4,42.9,29.68,ESE,121,0.0,11.0,16,0.00,,---,0.00,VWS V14.01,2013-09-07 21:41:00,
2013-09-07 14:46:00,97.2,43.6,29.68,WSW,241,5.0,6.0,16,0.00,,---,0.00,VWS V14.01,2013-09-07 21:46:00,
2013-09-07 14:51:00,97.3,45.2,29.68,SW,219,8.0,12.0,17,0.00,,---,0.00,VWS V14.01,2013-09-07 21:51:00,
2013-09-07 14:56:00,97.3,43.7,29.68,West,279,5.0,12.0,16,0.00,,---,0.00,VWS V14.01,2013-09-07 21:56:00,
2013-09-07 15:01:00,96.9,44.9,29.67,South,181,4.0,9.0,17,0.00,,---,0.00,VWS V14.01,2013-09-07 22:01:00,
2013-09-07 15:06:00,96.9,43.3,29.67,West,260,6.0,12.0,16,0.00,,---,0.00,VWS V14.01,2013-09-07 22:06:00,
2013-09-07 15:11:00,96.6,44.7,29.67,South,182,3.0,12.0,17,0.00,,---,0.00,VWS V14.01,2013-09-07 22:11:00,
2013-09-07 15:16:00,96.7,44.8,29.67,WNW,282,0.0,6.0,17,0.00,,---,0.00,VWS V14.01,2013-09-07 22:16:00,
2013-09-07 15:21:00,97.3,45.2,29.67,SW,222,4.0,7.0,17,0.00,,---,0.00,VWS V14.01,2013-09-07 22:21:00,
2013-09-07 15:26:00,97.3,45.2,29.67,South,174,5.0,13.0,17,0.00,,---,0.00,VWS V14.01,2013-09-07 22:26:00,
2013-09-07 15:31:00,97.8,45.7,29.67,SW,224,0.0,5.0,17,0.00,,---,0.00,VWS V14.01,2013-09-07 22:31:00,
2013-09-07 15:36:00,97.6,45.5,29.67,SSE,166,12.0,12.0,17,0.00,,---,0.00,VWS V14.01,2013-09-07 22:36:00,
2013-09-07 15:41:00,97.2,46.7,29.67,SSW,195,5.0,15.0,18,0.00,,---,0.00,VWS V14.01,2013-09-07 22:41:00,
2013-09-07 15:46:00,97.4,45.3,29.66,SW,226,14.0,14.0,17,0.00,,---,0.00,VWS V14.01,2013-09-07 22:46:00,
2013-09-07 15:52:00,96.9,46.4,29.67,SW,231,11.0,14.0,18,0.00,,---,0.00,VWS V14.01,2013-09-07 22:52:00,
2013-09-07 15:57:00,97.0,45.0,29.66,WNW,284,8.0,14.0,17,0.00,,---,0.00,VWS V14.01,2013-09-07 22:57:00,
2013-09-07 16:02:00,97.1,46.6,29.66,SW,221,3.0,10.0,18,0.00,,---,0.00,VWS V14.01,2013-09-07 23:02:00,
2013-09-07 16:07:00,97.2,46.7,29.65,SW,226,12.0,13.0,18,0.00,,---,0.00,VWS V14.01,2013-09-07 23:07:00,
2013-09-07 16:12:00,97.3,46.8,29.66,SW,236,3.0,18.0,18,0.00,,---,0.00,VWS V14.01,2013-09-07 23:12:00,
2013-09-07 16:17:00,97.4,45.3,29.66,SW,226,8.0,12.0,17,0.00,,---,0.00,VWS V14.01,2013-09-07 23:17:00,
2013-09-07 16:22:00,97.0,45.0,29.66,South,187,7.0,18.0,17,0.00,,---,0.00,VWS V14.01,2013-09-07 23:22:00,
2013-09-07 16:27:00,96.5,46.1,29.66,WSW,248,13.0,18.0,18,0.00,,---,0.00,VWS V14.01,2013-09-07 23:27:00,
2013-09-07 16:32:00,96.5,46.1,29.66,SSW,203,5.0,14.0,18,0.00,,---,0.00,VWS V14.01,2013-09-07 23:32:00,
2013-09-07 16:37:00,96.2,47.3,29.66,SSW,201,9.0,16.0,19,0.00,,---,0.00,VWS V14.01,2013-09-07 23:37:00,
2013-09-07 16:42:00,95.8,45.5,29.66,WNW,302,7.0,16.0,18,0.00,,---,0.00,VWS V14.01,2013-09-07 23:42:00,
2013-09-07 16:47:00,95.7,45.5,29.66,SW,215,17.0,19.0,18,0.00,,---,0.00,VWS V14.01,2013-09-07 23:47:00,
2013-09-07 16:52:00,95.9,45.6,29.66,SSW,193,11.0,19.0,18,0.00,,---,0.00,VWS V14.01,2013-09-07 23:52:00,
2013-09-07 16:57:00,95.8,45.5,29.66,SSW,200,18.0,19.0,18,0.00,,---,0.00,VWS V14.01,2013-09-07 23:57:00,
2013-09-07 17:02:00,95.3,46.6,29.66,South,184,11.0,14.0,19,0.00,,---,0.00,VWS V14.01,2013-09-08 00:02:00,
2013-09-07 17:07:00,95.1,45.0,29.66,South,191,7.0,16.0,18,0.00,,---,0.00,VWS V14.01,2013-09-08 00:07:00,
2013-09-07 17:12:00,94.9,44.8,29.66,SSW,207,6.0,16.0,18,0.00,,---,0.00,VWS V14.01,2013-09-08 00:12:00,
2013-09-07 17:17:00,94.8,44.7,29.66,SW,215,13.0,18.0,18,0.00,,---,0.00,VWS V14.01,2013-09-08 00:17:00,
2013-09-07 17:22:00,94.3,44.3,29.66,SW,221,16.0,24.0,18,0.00,,---,0.00,VWS V14.01,2013-09-08 00:22:00,
2013-09-07 17:27:00,93.9,44.0,29.66,SW,221,8.0,24.0,18,0.00,,---,0.00,VWS V14.01,2013-09-08 00:27:00,
2013-09-07 17:32:00,93.8,45.3,29.66,SSW,212,6.0,16.0,19,0.00,,---,0.00,VWS V14.01,2013-09-08 00:32:00,
2013-09-07 17:37:00,93.6,43.8,29.66,SW,224,12.0,18.0,18,0.00,,---,0.00,VWS V14.01,2013-09-08 00:37:00,
2013-09-07 17:42:00,93.4,43.6,29.66,SW,215,21.0,21.0,18,0.00,,---,0.00,VWS V14.01,2013-09-08 00:42:00,
2013-09-07 17:47:00,93.0,43.3,29.67,SW,218,7.0,19.0,18,0.00,,---,0.00,VWS V14.01,2013-09-08 00:47:00,
2013-09-07 17:52:00,92.9,43.2,29.67,WSW,254,6.0,19.0,18,0.00,,---,0.00,VWS V14.01,2013-09-08 00:52:00,
2013-09-07 17:57:00,92.6,43.0,29.67,SW,215,11.0,22.0,18,0.00,,---,0.00,VWS V14.01,2013-09-08 00:57:00,
2013-09-07 18:02:00,92.2,41.2,29.66,SSW,201,6.0,17.0,17,0.00,,---,0.00,VWS V14.01,2013-09-08 01:02:00,
2013-09-07 18:07:00,92.2,41.2,29.67,SW,228,12.0,17.0,17,0.00,,---,0.00,VWS V14.01,2013-09-08 01:07:00,
2013-09-07 18:12:00,92.0,42.5,29.67,SSW,205,6.0,18.0,18,0.00,,---,0.00,VWS V14.01,2013-09-08 01:12:00,
2013-09-07 18:17:00,91.8,42.3,29.67,SW,224,9.0,14.0,18,0.00,,---,0.00,VWS V14.01,2013-09-08 01:17:00,
2013-09-07 18:22:00,91.5,42.1,29.67,WSW,245,11.0,18.0,18,0.00,,---,0.00,VWS V14.01,2013-09-08 01:22:00,
2013-09-07 18:27:00,91.2,41.8,29.66,SW,226,6.0,19.0,18,0.00,,---,0.00,VWS V14.01,2013-09-08 01:27:00,
2013-09-07 18:32:00,90.9,41.6,29.67,SSW,203,6.0,19.0,18,0.00,,---,0.00,VWS V14.01,2013-09-08 01:32:00,
2013-09-07 18:37:00,90.7,41.4,29.67,SW,236,13.0,22.0,18,0.00,,---,0.00,VWS V14.01,2013-09-08 01:37:00,
2013-09-07 18:42:00,90.4,41.2,29.67,SSW,204,11.0,22.0,18,0.00,,---,0.00,VWS V14.01,2013-09-08 01:42:00,
2013-09-07 18:47:00,90.1,40.9,29.67,SW,225,11.0,16.0,18,0.00,,---,0.00,VWS V14.01,2013-09-08 01:47:00,
2013-09-07 18:52:00,89.7,40.6,29.67,SSW,203,3.0,16.0,18,0.00,,---,0.00,VWS V14.01,2013-09-08 01:52:00,
2013-09-07 18:57:00,89.3,40.3,29.68,SSW,197,9.0,16.0,18,0.00,,---,0.00,VWS V14.01,2013-09-08 01:57:00,
2013-09-07 19:02:00,88.9,40.0,29.68,SW,228,5.0,14.0,18,0.00,,---,0.00,VWS V14.01,2013-09-08 02:02:00,
2013-09-07 19:07:00,88.5,39.6,29.68,SW,226,10.0,18.0,18,0.00,,---,0.00,VWS V14.01,2013-09-08 02:07:00,
2013-09-07 19:12:00,88.0,39.2,29.68,SSW,195,5.0,18.0,18,0.00,,---,0.00,VWS V14.01,2013-09-08 02:12:00,
2013-09-07 19:17:00,87.8,39.1,29.68,SW,236,15.0,16.0,18,0.00,,---,0.00,VWS V14.01,2013-09-08 02:17:00,
2013-09-07 19:22:00,87.6,38.9,29.68,West,259,8.0,17.0,18,0.00,,---,0.00,VWS V14.01,2013-09-08 02:22:00,
2013-09-07 19:27:00,87.2,40.0,29.68,SW,215,15.0,17.0,19,0.00,,---,0.00,VWS V14.01,2013-09-08 02:27:00,
2013-09-07 19:32:00,87.0,39.8,29.68,SW,224,8.0,17.0,19,0.00,,---,0.00,VWS V14.01,2013-09-08 02:32:00,
2013-09-07 19:37:00,86.7,40.9,29.68,SW,231,7.0,17.0,20,0.00,,---,0.00,VWS V14.01,2013-09-08 02:37:00,
2013-09-07 19:42:00,86.5,40.7,29.69,SW,231,12.0,18.0,20,0.00,,---,0.00,VWS V14.01,2013-09-08 02:42:00,
2013-09-07 19:47:00,86.1,40.4,29.69,SW,217,5.0,14.0,20,0.00,,---,0.00,VWS V14.01,2013-09-08 02:47:00,
2013-09-07 19:52:00,85.8,40.1,29.69,SW,224,15.0,16.0,20,0.00,,---,0.00,VWS V14.01,2013-09-08 02:52:00,
2013-09-07 19:57:00,85.7,40.1,29.69,South,186,7.0,18.0,20,0.00,,---,0.00,VWS V14.01,2013-09-08 02:57:00,
2013-09-07 20:02:00,85.4,39.8,29.69,SSW,193,6.0,13.0,20,0.00,,---,0.00,VWS V14.01,2013-09-08 03:02:00,
2013-09-07 20:08:00,85.1,39.6,29.69,SW,224,11.0,14.0,20,0.00,,---,0.00,VWS V14.01,2013-09-08 03:08:00,
2013-09-07 20:13:00,84.9,39.4,29.69,SSW,207,12.0,14.0,20,0.00,,---,0.00,VWS V14.01,2013-09-08 03:13:00,
2013-09-07 20:18:00,84.8,39.3,29.70,SW,218,11.0,12.0,20,0.00,,---,0.00,VWS V14.01,2013-09-08 03:18:00,
2013-09-07 20:23:00,84.6,40.4,29.70,SW,224,9.0,12.0,21,0.00,,---,0.00,VWS V14.01,2013-09-08 03:23:00,
2013-09-07 20:28:00,84.4,40.2,29.70,SW,215,8.0,14.0,21,0.00,,---,0.00,VWS V14.01,2013-09-08 03:28:00,
2013-09-07 20:33:00,84.3,40.2,29.70,SSW,210,11.0,16.0,21,0.00,,---,0.00,VWS V14.01,2013-09-08 03:33:00,
2013-09-07 20:38:00,84.2,40.1,29.70,SSW,211,11.0,16.0,21,0.00,,---,0.00,VWS V14.01,2013-09-08 03:38:00,
2013-09-07 20:43:00,84.0,39.9,29.71,SSW,205,12.0,16.0,21,0.00,,---,0.00,VWS V14.01,2013-09-08 03:43:00,
2013-09-07 20:48:00,84.0,39.9,29.71,South,186,11.0,17.0,21,0.00,,---,0.00,VWS V14.01,2013-09-08 03:48:00,
2013-09-07 20:53:00,84.0,39.9,29.71,South,186,8.0,9.0,21,0.00,,---,0.00,VWS V14.01,2013-09-08 03:53:00,
2013-09-07 20:58:00,84.0,39.9,29.71,SSW,213,3.0,12.0,21,0.00,,---,0.00,VWS V14.01,2013-09-08 03:58:00,
2013-09-07 21:01:00,84.1,40.0,29.71,SW,219,9.0,16.0,21,0.00,,---,0.00,VWS V14.01,2013-09-08 04:01:00,
2013-09-07 21:02:00,84.1,40.0,29.71,SW,222,11.0,16.0,21,0.00,,---,0.00,VWS V14.01,2013-09-08 04:02:00,
2013-09-07 21:03:00,84.1,40.0,29.71,South,175,4.0,16.0,21,0.00,,---,0.00,VWS V14.01,2013-09-08 04:03:00,
2013-09-07 21:08:00,84.3,38.9,29.71,SSW,204,9.0,16.0,20,0.00,,---,0.00,VWS V14.01,2013-09-08 04:08:00,
2013-09-07 21:10:00,84.3,38.9,29.72,South,172,4.0,16.0,20,0.00,,---,0.00,VWS V14.01,2013-09-08 04:10:00,
2013-09-07 21:14:00,84.3,38.9,29.72,WSW,243,6.0,8.0,20,0.00,,---,0.00,VWS V14.01,2013-09-08 04:14:00,
2013-09-07 21:19:00,84.3,38.9,29.72,SSW,197,6.0,10.0,20,0.00,,---,0.00,VWS V14.01,2013-09-08 04:19:00,
2013-09-07 21:21:00,84.3,38.9,29.72,SW,224,7.0,13.0,20,0.00,,---,0.00,VWS V14.01,2013-09-08 04:21:00,
2013-09-07 21:26:00,84.4,39.0,29.72,SW,222,1.0,13.0,20,0.00,,---,0.00,VWS V14.01,2013-09-08 04:26:00,
2013-09-07 21:31:00,84.4,39.0,29.72,SSW,194,7.0,10.0,20,0.00,,---,0.00,VWS V14.01,2013-09-08 04:31:00,
2013-09-07 21:36:00,84.5,39.1,29.72,SW,222,6.0,11.0,20,0.00,,---,0.00,VWS V14.01,2013-09-08 04:36:00,
2013-09-07 21:41:00,84.2,38.8,29.72,WSW,243,5.0,11.0,20,0.00,,---,0.00,VWS V14.01,2013-09-08 04:41:00,
2013-09-07 21:46:00,84.1,40.0,29.73,SW,236,7.0,9.0,21,0.00,,---,0.00,VWS V14.01,2013-09-08 04:46:00,
2013-09-07 21:52:00,84.1,40.0,29.73,West,259,5.0,6.0,21,0.00,,---,0.00,VWS V14.01,2013-09-08 04:52:00,
2013-09-07 21:57:00,84.0,39.9,29.72,SSW,211,10.0,12.0,21,0.00,,---,0.00,VWS V14.01,2013-09-08 04:57:00,
2013-09-07 22:02:00,83.9,39.8,29.73,WNW,285,3.0,11.0,21,0.00,,---,0.00,VWS V14.01,2013-09-08 05:02:00,
2013-09-07 22:07:00,83.7,39.7,29.73,SW,224,8.0,11.0,21,0.00,,---,0.00,VWS V14.01,2013-09-08 05:07:00,
2013-09-07 22:12:00,83.6,39.6,29.73,SW,224,2.0,11.0,21,0.00,,---,0.00,VWS V14.01,2013-09-08 05:12:00,
2013-09-07 22:17:00,83.5,39.5,29.73,West,259,5.0,9.0,21,0.00,,---,0.00,VWS V14.01,2013-09-08 05:17:00,
2013-09-07 22:22:00,83.2,40.4,29.73,SW,217,5.0,9.0,22,0.00,,---,0.00,VWS V14.01,2013-09-08 05:22:00,
2013-09-07 22:27:00,83.0,40.3,29.73,SW,229,3.0,9.0,22,0.00,,---,0.00,VWS V14.01,2013-09-08 05:27:00,
2013-09-07 22:32:00,83.1,40.4,29.73,SSW,203,3.0,7.0,22,0.00,,---,0.00,VWS V14.01,2013-09-08 05:32:00,
2013-09-07 22:37:00,83.1,40.4,29.73,SSE,148,3.0,8.0,22,0.00,,---,0.00,VWS V14.01,2013-09-08 05:37:00,
2013-09-07 22:42:00,82.9,40.2,29.73,SSW,207,7.0,9.0,22,0.00,,---,0.00,VWS V14.01,2013-09-08 05:42:00,
2013-09-07 22:47:00,82.8,41.3,29.73,South,191,5.0,7.0,23,0.00,,---,0.00,VWS V14.01,2013-09-08 05:47:00,
2013-09-07 22:52:00,82.7,41.2,29.73,SSW,209,4.0,8.0,23,0.00,,---,0.00,VWS V14.01,2013-09-08 05:52:00,
2013-09-07 22:57:00,82.5,41.0,29.73,SW,218,0.0,8.0,23,0.00,,---,0.00,VWS V14.01,2013-09-08 05:57:00,
2013-09-07 23:02:00,82.4,40.9,29.73,South,190,0.0,6.0,23,0.00,,---,0.00,VWS V14.01,2013-09-08 06:02:00,
2013-09-07 23:07:00,82.2,40.8,29.72,SSW,203,0.0,6.0,23,0.00,,---,0.00,VWS V14.01,2013-09-08 06:07:00,
2013-09-07 23:12:00,81.7,41.4,29.72,SW,216,0.0,6.0,24,0.00,,---,0.00,VWS V14.01,2013-09-08 06:12:00,
2013-09-07 23:17:00,81.6,41.3,29.72,SSW,212,1.0,3.0,24,0.00,,---,0.00,VWS V14.01,2013-09-08 06:17:00,
2013-09-07 23:22:00,81.7,41.4,29.72,SSW,203,6.0,6.0,24,0.00,,---,0.00,VWS V14.01,2013-09-08 06:22:00,
2013-09-07 23:27:00,81.8,41.5,29.72,South,188,5.0,9.0,24,0.00,,---,0.00,VWS V14.01,2013-09-08 06:27:00,
2013-09-07 23:32:00,81.9,41.6,29.72,SW,221,6.0,8.0,24,0.00,,---,0.00,VWS V14.01,2013-09-08 06:32:00,
2013-09-07 23:38:00,82.0,41.7,29.72,SW,219,3.0,11.0,24,0.00,,---,0.00,VWS V14.01,2013-09-08 06:38:00,
2013-09-07 23:43:00,81.9,41.6,29.72,SSW,205,4.0,11.0,24,0.00,,---,0.00,VWS V14.01,2013-09-08 06:43:00,
2013-09-07 23:48:00,81.8,41.5,29.72,SW,218,5.0,5.0,24,0.00,,---,0.00,VWS V14.01,2013-09-08 06:48:00,
2013-09-07 23:53:00,81.5,41.3,29.71,SW,224,3.0,5.0,24,0.00,,---,0.00,VWS V14.01,2013-09-08 06:53:00,
2013-09-07 23:58:00,81.8,41.5,29.72,SSW,211,4.0,7.0,24,0.00,,---,0.00,VWS V14.01,2013-09-08 06:58:00,